createdAt,value
2019-04-03T00:02:06.553Z,89.60
2019-04-03T00:04:36.110Z,89.20
2019-04-03T00:07:06.036Z,89.10
2019-04-03T00:09:36.551Z,88.90
2019-04-03T00:12:06.385Z,90.00
2019-04-03T00:14:35.841Z,90.10
2019-04-03T00:17:05.392Z,89.70
2019-04-03T00:19:34.930Z,89.90
2019-04-03T00:22:04.449Z,89.70
2019-04-03T00:24:33.993Z,90.30
2019-04-03T00:27:03.633Z,90.30
2019-04-03T00:29:33.138Z,90.60
2019-04-03T00:32:02.696Z,90.60
2019-04-03T00:34:32.232Z,90.60
2019-04-03T00:37:01.865Z,90.70
2019-04-03T00:39:31.407Z,91.20
2019-04-03T00:42:00.944Z,91.00
2019-04-03T00:44:30.477Z,90.90
2019-04-03T00:47:00.157Z,91.20
2019-04-03T00:49:29.642Z,91.50
2019-04-03T00:51:59.178Z,91.30
2019-04-03T00:54:31.345Z,91.50
2019-04-03T00:57:04.150Z,91.40
2019-04-03T00:59:33.686Z,92.20
2019-04-03T01:02:05.174Z,91.50
2019-04-03T01:04:36.827Z,91.60
2019-04-03T01:07:07.492Z,91.90
2019-04-03T01:09:37.046Z,92.00
2019-04-03T01:12:06.858Z,92.10
2019-04-03T01:14:37.500Z,91.90
2019-04-03T01:17:08.980Z,92.10
2019-04-03T01:19:39.808Z,92.50
2019-04-03T01:22:10.638Z,92.20
2019-04-03T01:24:40.359Z,92.30
2019-04-03T01:27:11.941Z,92.30
2019-04-03T01:29:42.928Z,92.50
2019-04-03T01:32:15.146Z,92.40
2019-04-03T01:34:43.986Z,92.50
2019-04-03T01:37:13.822Z,92.70
2019-04-03T01:39:43.450Z,92.60
2019-04-03T01:42:13.168Z,92.40
2019-04-03T01:44:44.690Z,92.60
2019-04-03T01:47:16.061Z,92.50
2019-04-03T01:49:46.943Z,93.00
2019-04-03T01:52:16.464Z,92.70
2019-04-03T01:54:47.251Z,93.00
2019-04-03T01:57:17.973Z,92.90
2019-04-03T01:59:47.510Z,92.80
2019-04-03T02:02:18.537Z,93.10
2019-04-03T02:04:48.046Z,93.30
2019-04-03T02:07:17.596Z,93.20
2019-04-03T02:09:47.304Z,93.80
2019-04-03T02:12:17.936Z,93.30
2019-04-03T02:14:48.085Z,93.30
2019-04-03T02:17:17.615Z,93.70
2019-04-03T02:19:47.147Z,94.10
2019-04-03T02:22:16.686Z,93.70
2019-04-03T02:24:46.235Z,94.00
2019-04-03T02:27:15.772Z,93.90
2019-04-03T02:29:45.354Z,93.90
2019-04-03T02:32:15.135Z,93.60
2019-04-03T02:34:44.747Z,93.90
2019-04-03T02:37:18.032Z,93.70
2019-04-03T02:39:49.467Z,94.30
2019-04-03T02:42:20.839Z,94.10
2019-04-03T02:44:51.706Z,94.00
2019-04-03T02:47:21.666Z,94.40
2019-04-03T02:49:51.355Z,94.10
2019-04-03T02:52:24.335Z,93.90
2019-04-03T02:54:53.858Z,94.40
2019-04-03T02:57:23.579Z,94.70
2019-04-03T02:59:53.227Z,94.40
2019-04-03T03:02:22.773Z,94.70
2019-04-03T03:04:55.652Z,94.70
2019-04-03T03:07:25.216Z,94.50
2019-04-03T03:09:55.256Z,95.00
2019-04-03T03:12:27.382Z,94.70
2019-04-03T03:14:56.459Z,94.80
2019-04-03T03:17:27.716Z,94.60
2019-04-03T03:19:59.470Z,94.70
2019-04-03T03:22:29.876Z,94.90
2019-04-03T03:25:00.997Z,94.60
2019-04-03T03:27:30.719Z,94.80
2019-04-03T03:30:00.568Z,94.60
2019-04-03T03:32:34.867Z,94.70
2019-04-03T03:35:12.311Z,94.50
2019-04-03T03:37:35.551Z,94.90
2019-04-03T03:40:06.316Z,94.70
2019-04-03T03:42:37.106Z,94.60
2019-04-03T03:45:07.583Z,94.70
2019-04-03T03:47:38.056Z,95.20
2019-04-03T03:50:08.572Z,95.10
2019-04-03T03:52:39.424Z,95.40
2019-04-03T03:55:09.750Z,95.20
2019-04-03T03:57:40.675Z,95.30
2019-04-03T04:00:11.640Z,95.30
2019-04-03T04:02:44.310Z,95.90
2019-04-03T04:05:12.439Z,95.60
2019-04-03T04:07:42.039Z,95.40
2019-04-03T04:10:12.165Z,95.50
2019-04-03T04:12:43.496Z,95.40
2019-04-03T04:15:13.326Z,95.70
2019-04-03T04:17:42.840Z,95.40
2019-04-03T04:20:13.032Z,95.30
2019-04-03T04:22:43.974Z,95.20
2019-04-03T04:25:13.607Z,95.50
2019-04-03T04:27:43.771Z,95.30
2019-04-03T04:30:16.632Z,95.80
2019-04-03T04:32:46.909Z,95.60
2019-04-03T04:35:16.602Z,95.60
2019-04-03T04:37:46.154Z,95.30
2019-04-03T04:40:15.781Z,95.80
2019-04-03T04:42:45.638Z,95.80
2019-04-03T04:45:15.611Z,95.50
2019-04-03T04:47:46.555Z,95.40
2019-04-03T04:50:24.253Z,95.40
2019-04-03T04:52:53.551Z,95.60
2019-04-03T04:55:23.107Z,95.80
2019-04-03T04:57:52.671Z,95.70
2019-04-03T05:00:22.223Z,95.90
2019-04-03T05:02:51.767Z,95.90
2019-04-03T05:05:21.318Z,95.80
2019-04-03T05:07:50.871Z,96.10
2019-04-03T05:10:20.600Z,96.40
2019-04-03T05:12:52.054Z,96.30
2019-04-03T05:15:25.144Z,96.30
2019-04-03T05:17:57.105Z,96.70
2019-04-03T05:20:26.212Z,96.50
2019-04-03T05:22:55.827Z,96.90
2019-04-03T05:25:25.365Z,96.70
2019-04-03T05:27:54.936Z,96.50
2019-04-03T05:30:32.819Z,96.20
2019-04-03T05:33:02.360Z,96.20
2019-04-03T05:35:52.051Z,96.00
2019-04-03T05:38:22.459Z,96.10
2019-04-03T05:40:56.480Z,95.90
2019-04-03T05:43:26.201Z,95.80
2019-04-03T05:45:55.976Z,95.80
2019-04-03T05:48:37.135Z,95.90
2019-04-03T05:51:13.047Z,95.50
2019-04-03T05:53:47.312Z,95.40
2019-04-03T05:56:24.467Z,95.60
2019-04-03T05:58:56.865Z,95.30
2019-04-03T06:01:25.517Z,95.10
2019-04-03T06:03:55.371Z,95.10
2019-04-03T06:06:25.257Z,95.00
2019-04-03T06:08:56.464Z,95.20
2019-04-03T06:11:25.977Z,95.00
2019-04-03T06:13:55.600Z,94.80
2019-04-03T06:16:25.475Z,94.90
2019-04-03T06:18:55.272Z,94.70
2019-04-03T06:21:24.892Z,94.80
2019-04-03T06:23:54.483Z,95.50
2019-04-03T06:26:24.268Z,94.80
2019-04-03T06:28:54.015Z,95.20
2019-04-03T06:31:24.306Z,94.60
2019-04-03T06:33:54.782Z,94.80
2019-04-03T06:36:26.701Z,94.60
2019-04-03T06:38:57.143Z,94.00
2019-04-03T06:41:27.188Z,96.60
2019-04-03T06:43:56.846Z,94.20
2019-04-03T06:46:28.576Z,93.90
2019-04-03T06:48:57.717Z,93.40
2019-04-03T06:51:27.269Z,93.00
2019-04-03T06:53:58.782Z,92.60
2019-04-03T06:56:28.038Z,92.50
2019-04-03T06:58:57.562Z,92.10
2019-04-03T07:01:27.275Z,92.10
2019-04-03T07:03:57.090Z,91.70
2019-04-03T07:06:27.693Z,91.00
2019-04-03T07:08:58.294Z,90.40
2019-04-03T07:11:28.175Z,90.10
2019-04-03T07:14:01.422Z,88.20
2019-04-03T07:16:31.336Z,87.20
2019-04-03T07:19:01.340Z,87.30
2019-04-03T07:21:32.679Z,86.50
2019-04-03T07:24:02.287Z,84.40
2019-04-03T07:26:32.026Z,84.90
2019-04-03T07:29:02.634Z,84.80
2019-04-03T07:31:32.307Z,84.70
2019-04-03T07:34:03.443Z,83.60
2019-04-03T07:36:34.368Z,81.90
2019-04-03T07:39:06.291Z,82.30
2019-04-03T07:41:35.888Z,79.40
2019-04-03T07:44:05.800Z,79.10
2019-04-03T07:46:35.331Z,78.90
2019-04-03T07:49:04.898Z,79.00
2019-04-03T07:51:34.650Z,78.40
2019-04-03T07:54:04.949Z,78.40
2019-04-03T07:56:34.728Z,76.70
2019-04-03T07:59:04.364Z,75.80
2019-04-03T08:01:33.890Z,77.10
2019-04-03T08:04:03.450Z,80.70
2019-04-03T08:06:35.039Z,84.90
2019-04-03T08:09:09.080Z,88.80
2019-04-03T08:11:37.478Z,83.00
2019-04-03T08:14:09.141Z,77.30
2019-04-03T08:16:41.602Z,76.90
2019-04-03T08:19:09.878Z,77.00
2019-04-03T08:21:39.430Z,72.90
2019-04-03T08:24:08.990Z,72.70
2019-04-03T08:26:38.719Z,71.00
2019-04-03T08:29:08.243Z,72.80
2019-04-03T08:31:37.774Z,70.90
2019-04-03T08:34:16.294Z,69.60
2019-04-03T08:36:39.815Z,69.10
2019-04-03T08:39:09.763Z,68.70
2019-04-03T08:41:39.323Z,71.20
2019-04-03T08:44:09.290Z,70.00
2019-04-03T08:46:39.059Z,70.40
2019-04-03T08:49:08.630Z,71.30
2019-04-03T08:51:38.258Z,69.50
2019-04-03T08:54:09.815Z,70.20
2019-04-03T08:56:39.003Z,68.20
2019-04-03T08:59:08.542Z,71.10
2019-04-03T09:01:38.219Z,69.20
2019-04-03T09:04:08.014Z,68.40
2019-04-03T09:06:37.596Z,69.20
2019-04-03T09:09:09.679Z,68.40
2019-04-03T09:11:39.337Z,68.50
2019-04-03T09:14:09.173Z,67.10
2019-04-03T09:16:38.979Z,66.60
2019-04-03T09:19:10.462Z,67.40
2019-04-03T09:21:39.874Z,66.50
2019-04-03T09:24:09.472Z,64.40
2019-04-03T09:26:39.005Z,64.80
2019-04-03T09:29:08.530Z,63.80
2019-04-03T09:31:38.131Z,64.50
2019-04-03T09:34:07.891Z,62.40
2019-04-03T09:36:37.583Z,61.20
2019-04-03T09:39:12.916Z,62.30
2019-04-03T09:41:42.279Z,62.30
2019-04-03T09:44:11.879Z,62.20
2019-04-03T09:46:44.536Z,62.20
2019-04-03T09:49:13.099Z,60.80
2019-04-03T09:51:42.839Z,62.80
2019-04-03T09:54:13.998Z,62.10
2019-04-03T09:56:56.114Z,61.10
2019-04-03T09:59:15.929Z,60.20
2019-04-03T10:01:47.827Z,60.00
2019-04-03T10:04:20.053Z,60.90
2019-04-03T10:06:48.572Z,60.80
2019-04-03T10:09:18.675Z,61.80
2019-04-03T10:11:50.603Z,61.70
2019-04-03T10:14:19.662Z,61.40
2019-04-03T10:16:49.943Z,62.90
2019-04-03T10:19:19.471Z,62.60
2019-04-03T10:21:51.752Z,60.70
2019-04-03T10:24:20.370Z,61.30
2019-04-03T10:26:49.995Z,61.30
2019-04-03T10:29:21.899Z,61.70
2019-04-03T10:31:53.126Z,60.10
2019-04-03T10:34:22.806Z,61.00
2019-04-03T10:36:52.736Z,61.00
2019-04-03T10:39:23.507Z,61.40
2019-04-03T10:41:53.079Z,61.00
2019-04-03T10:44:22.638Z,61.20
2019-04-03T10:46:52.163Z,61.40
2019-04-03T10:49:21.710Z,62.10
2019-04-03T10:51:51.331Z,61.70
2019-04-03T10:54:21.931Z,61.20
2019-04-03T10:56:53.175Z,60.70
2019-04-03T10:59:22.906Z,60.70
2019-04-03T11:01:52.465Z,59.50
2019-04-03T11:04:22.095Z,58.40
2019-04-03T11:06:51.806Z,57.70
2019-04-03T11:09:21.356Z,57.60
2019-04-03T11:11:54.311Z,57.10
2019-04-03T11:14:24.040Z,58.20
2019-04-03T11:16:53.738Z,57.20
2019-04-03T11:19:23.429Z,56.80
2019-04-03T11:21:54.699Z,57.00
2019-04-03T11:24:24.511Z,57.60
2019-04-03T11:26:54.788Z,57.40
2019-04-03T11:29:24.528Z,58.30
2019-04-03T11:31:54.418Z,58.20
2019-04-03T11:34:24.143Z,58.50
2019-04-03T11:36:54.024Z,58.30
2019-04-03T11:39:24.175Z,57.60
2019-04-03T11:41:55.574Z,56.70
2019-04-03T11:44:25.643Z,56.50
2019-04-03T11:46:55.860Z,55.70
2019-04-03T11:49:25.472Z,56.00
2019-04-03T11:51:55.197Z,55.80
2019-04-03T11:54:25.092Z,55.10
2019-04-03T11:56:56.656Z,55.30
2019-04-03T11:59:26.398Z,55.50
2019-04-03T12:01:56.391Z,53.80
2019-04-03T12:04:25.994Z,51.10
2019-04-03T12:06:55.526Z,50.00
2019-04-03T12:09:25.486Z,50.50
2019-04-03T12:11:55.542Z,49.20
2019-04-03T12:14:25.298Z,49.20
2019-04-03T12:16:57.046Z,49.00
2019-04-03T12:19:26.270Z,49.40
2019-04-03T12:21:55.834Z,49.60
2019-04-03T12:24:25.362Z,48.50
2019-04-03T12:26:55.482Z,48.90
2019-04-03T12:29:25.668Z,48.60
2019-04-03T12:31:55.271Z,48.30
2019-04-03T12:34:25.069Z,47.90
2019-04-03T12:36:54.889Z,46.40
2019-04-03T12:39:28.071Z,45.90
2019-04-03T12:41:58.241Z,46.40
2019-04-03T12:44:29.004Z,46.60
2019-04-03T12:46:59.005Z,46.10
2019-04-03T12:49:28.535Z,47.20
2019-04-03T12:51:58.156Z,46.70
2019-04-03T12:54:27.995Z,46.00
2019-04-03T12:57:00.295Z,46.20
2019-04-03T12:59:29.347Z,45.20
2019-04-03T13:01:59.348Z,45.30
2019-04-03T13:04:31.064Z,45.70
2019-04-03T13:07:00.376Z,45.30
2019-04-03T13:09:29.914Z,45.60
2019-04-03T13:12:00.081Z,46.70
2019-04-03T13:14:30.205Z,46.20
2019-04-03T13:17:00.949Z,46.70
2019-04-03T13:19:30.795Z,46.00
2019-04-03T13:22:00.506Z,46.20
2019-04-03T13:24:30.316Z,45.60
2019-04-03T13:27:00.303Z,46.80
2019-04-03T13:29:29.856Z,46.40
2019-04-03T13:31:59.650Z,46.10
2019-04-03T13:34:31.153Z,46.10
2019-04-03T13:37:00.459Z,44.90
2019-04-03T13:39:30.949Z,44.30
2019-04-03T13:42:01.947Z,43.80
2019-04-03T13:44:31.891Z,44.30
2019-04-03T13:47:01.510Z,43.50
2019-04-03T13:49:31.386Z,43.80
2019-04-03T13:52:10.747Z,43.80
2019-04-03T13:54:46.177Z,43.90
2019-04-03T13:57:34.921Z,44.40
2019-04-03T14:00:19.905Z,44.50
2019-04-03T14:02:56.880Z,44.50
2019-04-03T14:05:27.817Z,43.10
2019-04-03T14:07:57.780Z,43.30
2019-04-03T14:10:27.919Z,42.50
2019-04-03T14:12:59.364Z,41.70
2019-04-03T14:15:31.189Z,43.60
2019-04-03T14:18:00.804Z,42.70
2019-04-03T14:20:30.961Z,42.60
2019-04-03T14:23:02.705Z,42.80
2019-04-03T14:25:38.006Z,42.90
2019-04-03T14:28:07.147Z,42.80
2019-04-03T14:30:37.175Z,41.20
2019-04-03T14:33:06.977Z,40.70
2019-04-03T14:35:48.715Z,41.20
2019-04-03T14:38:07.875Z,40.60
2019-04-03T14:40:37.387Z,39.60
2019-04-03T14:43:06.975Z,39.90
2019-04-03T14:45:38.754Z,40.50
2019-04-03T14:48:07.665Z,39.50
2019-04-03T14:50:38.346Z,39.50
2019-04-03T14:53:08.550Z,40.10
2019-04-03T14:55:47.185Z,39.40
2019-04-03T14:58:09.860Z,39.00
2019-04-03T15:00:39.638Z,37.80
2019-04-03T15:03:10.371Z,38.20
2019-04-03T15:05:42.579Z,38.20
2019-04-03T15:08:11.108Z,38.80
2019-04-03T15:10:40.646Z,37.10
2019-04-03T15:13:12.728Z,36.20
2019-04-03T15:15:41.381Z,36.40
2019-04-03T15:18:11.371Z,36.80
2019-04-03T15:20:41.251Z,37.20
2019-04-03T15:23:10.791Z,36.00
2019-04-03T15:25:42.526Z,34.80
2019-04-03T15:28:11.743Z,34.60
2019-04-03T15:30:43.412Z,34.40
2019-04-03T15:33:12.682Z,34.30
2019-04-03T15:35:42.509Z,34.10
2019-04-03T15:38:13.305Z,34.50
2019-04-03T15:40:43.541Z,33.90
2019-04-03T15:43:15.948Z,33.60
2019-04-03T15:45:44.341Z,34.50
2019-04-03T15:48:13.893Z,35.30
2019-04-03T15:50:43.443Z,35.60
2019-04-03T15:53:12.990Z,36.50
2019-04-03T15:55:42.535Z,36.70
2019-04-03T15:58:12.694Z,37.40
2019-04-03T16:00:47.046Z,38.70
2019-04-03T16:03:17.568Z,40.20
2019-04-03T16:05:49.715Z,41.70
2019-04-03T16:08:19.669Z,42.70
2019-04-03T16:10:49.484Z,43.00
2019-04-03T16:13:21.347Z,43.70
2019-04-03T16:15:50.195Z,43.90
2019-04-03T16:18:20.646Z,44.80
2019-04-03T16:20:50.878Z,44.70
2019-04-03T16:23:20.439Z,44.30
2019-04-03T16:25:50.392Z,44.90
2019-04-03T16:28:19.998Z,45.70
2019-04-03T16:30:52.473Z,45.60
2019-04-03T16:33:23.984Z,45.50
2019-04-03T16:35:51.951Z,46.00
2019-04-03T16:38:21.845Z,45.80
2019-04-03T16:40:51.562Z,46.30
2019-04-03T16:43:22.217Z,46.70
2019-04-03T16:45:52.502Z,46.90
2019-04-03T16:48:22.021Z,47.20
2019-04-03T16:50:51.574Z,47.30
2019-04-03T16:53:21.443Z,47.40
2019-04-03T16:55:51.151Z,47.90
2019-04-03T16:58:20.722Z,47.90
2019-04-03T17:00:50.550Z,48.60
2019-04-03T17:03:20.309Z,48.60
2019-04-03T17:05:49.873Z,48.70
2019-04-03T17:08:19.481Z,49.00
2019-04-03T17:10:49.031Z,49.30
2019-04-03T17:13:18.901Z,49.70
2019-04-03T17:15:49.794Z,49.70
2019-04-03T17:18:19.330Z,49.60
2019-04-03T17:20:50.350Z,50.00
2019-04-03T17:23:20.219Z,50.40
2019-04-03T17:25:51.600Z,50.40
2019-04-03T17:28:21.050Z,50.80
2019-04-03T17:30:51.591Z,50.80
2019-04-03T17:33:22.185Z,50.90
2019-04-03T17:35:52.170Z,50.80
2019-04-03T17:38:21.752Z,50.90
2019-04-03T17:40:51.522Z,51.10
2019-04-03T17:43:21.053Z,51.20
2019-04-03T17:45:50.587Z,51.30
2019-04-03T17:48:20.146Z,51.20
2019-04-03T17:50:49.681Z,51.00
2019-04-03T17:53:19.252Z,51.20
2019-04-03T17:55:48.998Z,51.60
2019-04-03T17:58:18.559Z,51.50
2019-04-03T18:00:51.648Z,51.90
2019-04-03T18:03:19.619Z,52.20
2019-04-03T18:05:51.442Z,53.80
2019-04-03T18:08:21.942Z,53.30
2019-04-03T18:10:51.478Z,53.40
2019-04-03T18:13:23.372Z,54.20
2019-04-03T18:15:53.515Z,54.90
2019-04-03T18:18:23.027Z,55.30
2019-04-03T18:20:52.580Z,55.00
2019-04-03T18:23:22.507Z,55.40
2019-04-03T18:25:52.041Z,55.70
2019-04-03T18:28:21.584Z,56.80
2019-04-03T18:30:51.180Z,56.20
2019-04-03T18:33:20.727Z,56.40
2019-04-03T18:35:50.248Z,56.70
2019-04-03T18:38:19.831Z,57.80
2019-04-03T18:40:49.791Z,56.80
2019-04-03T18:43:21.647Z,58.00
2019-04-03T18:45:50.794Z,57.50
2019-04-03T18:48:20.312Z,57.10
2019-04-03T18:50:49.877Z,56.60
2019-04-03T18:53:19.498Z,66.60
2019-04-03T18:55:49.026Z,58.00
2019-04-03T18:58:18.566Z,58.00
2019-04-03T19:00:48.146Z,57.60
2019-04-03T19:03:17.684Z,57.90
2019-04-03T19:05:47.310Z,57.60
2019-04-03T19:08:18.296Z,59.30
2019-04-03T19:10:48.075Z,58.40
2019-04-03T19:13:17.634Z,59.40
2019-04-03T19:15:47.158Z,58.90
2019-04-03T19:18:19.635Z,59.90
2019-04-03T19:20:49.032Z,60.80
2019-04-03T19:23:18.563Z,59.80
2019-04-03T19:25:48.115Z,59.70
2019-04-03T19:28:17.790Z,59.40
2019-04-03T19:30:47.358Z,59.60
2019-04-03T19:33:17.086Z,59.70
2019-04-03T19:35:46.635Z,60.00
2019-04-03T19:38:16.388Z,62.20
2019-04-03T19:40:45.968Z,60.90
2019-04-03T19:43:15.578Z,61.40
2019-04-03T19:45:45.178Z,62.80
2019-04-03T19:48:14.946Z,62.00
2019-04-03T19:50:44.546Z,63.90
2019-04-03T19:53:14.178Z,63.80
2019-04-03T19:55:43.992Z,64.20
2019-04-03T19:58:13.528Z,63.60
2019-04-03T20:00:43.874Z,63.90
2019-04-03T20:03:14.185Z,64.70
2019-04-03T20:05:44.495Z,64.60
2019-04-03T20:08:18.213Z,66.50
2019-04-03T20:10:49.067Z,65.30
2019-04-03T20:13:18.290Z,65.80
2019-04-03T20:15:48.247Z,66.20
2019-04-03T20:18:17.802Z,66.80
2019-04-03T20:20:47.342Z,66.30
2019-04-03T20:23:17.271Z,67.70
2019-04-03T20:25:46.906Z,67.50
2019-04-03T20:28:18.871Z,67.40
2019-04-03T20:30:48.631Z,67.40
2019-04-03T20:33:18.184Z,67.80
2019-04-03T20:35:49.379Z,68.60
2019-04-03T20:38:18.898Z,68.00
2019-04-03T20:40:48.434Z,69.90
2019-04-03T20:43:17.961Z,69.50
2019-04-03T20:45:49.539Z,69.50
2019-04-03T20:48:18.919Z,69.70
2019-04-03T20:50:48.638Z,69.30
2019-04-03T20:53:18.308Z,71.30
2019-04-03T20:55:47.791Z,70.00
2019-04-03T20:58:17.383Z,70.40
2019-04-03T21:00:49.501Z,70.70
2019-04-03T21:03:18.142Z,70.60
2019-04-03T21:05:48.776Z,71.80
2019-04-03T21:08:18.993Z,71.90
2019-04-03T21:10:48.520Z,71.30
2019-04-03T21:13:18.047Z,71.90
2019-04-03T21:15:47.606Z,72.00
2019-04-03T21:18:17.202Z,72.20
2019-04-03T21:20:46.735Z,72.10
2019-04-03T21:23:16.306Z,71.80
2019-04-03T21:25:45.834Z,73.30
2019-04-03T21:28:15.381Z,73.60
2019-04-03T21:30:44.967Z,73.20
2019-04-03T21:33:17.142Z,74.10
2019-04-03T21:35:45.695Z,74.50
2019-04-03T21:38:15.236Z,74.60
2019-04-03T21:40:46.596Z,75.30
2019-04-03T21:43:15.969Z,75.30
2019-04-03T21:45:45.530Z,75.80
2019-04-03T21:48:15.105Z,75.40
2019-04-03T21:50:44.679Z,75.60
2019-04-03T21:53:14.266Z,75.80
2019-04-03T21:55:43.811Z,76.20
2019-04-03T21:58:13.341Z,76.90
2019-04-03T22:01:21.681Z,76.90
2019-04-03T22:03:52.027Z,76.80
2019-04-03T22:06:21.974Z,77.50
2019-04-03T22:08:51.780Z,76.70
2019-04-03T22:11:21.484Z,77.20
2019-04-03T22:13:51.023Z,77.50
2019-04-03T22:16:20.627Z,78.40
2019-04-03T22:18:50.098Z,78.30
2019-04-03T22:21:19.635Z,78.70
2019-04-03T22:23:49.198Z,78.90
2019-04-03T22:26:18.762Z,79.20
2019-04-03T22:28:48.284Z,79.70
2019-04-03T22:31:17.826Z,78.70
2019-04-03T22:33:47.358Z,78.80
2019-04-03T22:36:16.878Z,80.20
2019-04-03T22:38:46.462Z,79.10
2019-04-03T22:41:15.998Z,80.20
2019-04-03T22:43:46.183Z,80.30
2019-04-03T22:46:16.490Z,81.40
2019-04-03T22:48:46.070Z,80.40
2019-04-03T22:51:15.631Z,81.50
2019-04-03T22:53:45.187Z,80.90
2019-04-03T22:56:16.542Z,81.60
2019-04-03T22:58:45.942Z,80.50
2019-04-03T23:01:15.530Z,81.10
2019-04-03T23:03:45.061Z,81.20
2019-04-03T23:06:14.612Z,81.10
2019-04-03T23:08:44.237Z,80.70
2019-04-03T23:11:13.771Z,80.90
2019-04-03T23:13:43.338Z,81.20
2019-04-03T23:16:12.922Z,81.10
2019-04-03T23:18:42.543Z,82.20
2019-04-03T23:21:12.031Z,82.50
2019-04-03T23:23:41.599Z,83.30
2019-04-03T23:26:11.155Z,83.40
2019-04-03T23:28:40.709Z,82.90
2019-04-03T23:31:11.108Z,82.90
2019-04-03T23:33:41.490Z,83.70
2019-04-03T23:36:11.030Z,82.50
2019-04-03T23:38:40.626Z,84.50
2019-04-03T23:41:10.182Z,83.40
2019-04-03T23:43:40.254Z,83.40
2019-04-03T23:46:09.820Z,84.10
2019-04-03T23:48:39.391Z,83.70
2019-04-03T23:51:08.969Z,84.70
2019-04-03T23:53:38.560Z,83.90
2019-04-03T23:56:08.107Z,84.30
2019-04-03T23:58:37.718Z,84.40
